Decoded Metar for NZCH (CHRISTCHURCH in NEW ZEALAND) (IATA:CHC) | Meteo·Mobile Aviation Weather
aviador You're here:

NZCH Decoded Metar

CHRISTCHURCH in NEW ZEALAND
Report Time2018-08-17 01:00:00
UTC Time2018-08-17 01:31:04
Flight Rules vfr VFR
Wind220° at 06 kt
W.Decomp.*RWY 20: 6.0 kt HW 0.3 kt LCW
RWY 11: 0.3 kt HW 6.0 kt RCW
W.Rank220° ranks 7
Current wind is below 220° avg. (9.3)
Visibility9999 m
Phenomena:N/A
Clouds:Broken 070 Hf
Broken 085 Hf
Expected CloudBase > 2,000 ft AGL from Temp-Dew spread
Ceiling7,000 ft
Temp12°C (ISA -3)
Dew Point07°C (72% RH)
AAT9.2°C
QNH0998 hPa
Density Alt430 ft
Elevation112 ft
Report Wrong Elevation
Raw Report
NZCH 170100Z AUTO 22006KT 9999 BKN070 BKN085 12/07 Q0998 NOSIG=

Extra information for NZCH:More info

Metar Taf Metar & Taf Last 4 Metars F.Rules Stats Wind Profile Meteogram Temp Stats Airport Information Weather charts Add Link Nearby VenuesMetar ALERT Operation Metar Decoded Social comments